Time;durP1;ratioP1;P1;durP2;ratioP2;P2;SDS_P1;SDS_P2;PMS_P1;PMS_P2;Temp;Humidity;BMP_temperature;BMP_pressure;BME280_temperature;BME280_humidity;BME280_pressure;Samples;Min_cycle;Max_cycle;Signal;HPM_P1;HPM_P2
2021/07/05 00:00:34;;;;;;;4.22;2.80;;;14.90;99.90;;;13.51;98.92;100607.66;3510183;40;102218;-40
2021/07/05 00:03:01;;;;;;;4.00;3.03;;;14.90;99.90;;;13.46;99.03;100596.59;3509891;40;102088;-40
2021/07/05 00:05:29;;;;;;;7.85;3.38;;;14.90;99.90;;;13.52;99.27;100606.59;3509874;40;102335;-40
2021/07/05 00:07:57;;;;;;;;;;;14.90;99.90;;;13.50;99.29;100595.03;3511310;40;102396;-40
2021/07/05 00:10:27;;;;;;;3.95;2.88;;;14.90;99.90;;;13.48;99.29;100597.19;3510152;40;103134;-40
2021/07/05 00:12:56;;;;;;;4.70;3.05;;;14.90;99.90;;;13.51;99.45;100599.44;3509859;40;102480;-40
2021/07/05 00:15:28;;;;;;;7.03;3.42;;;14.90;99.90;;;13.44;99.33;100590.50;3510765;40;102575;-40
2021/07/05 00:18:04;;;;;;;5.45;3.05;;;14.90;99.90;;;13.52;99.55;100598.38;3510081;40;102319;-40
2021/07/05 00:20:37;;;;;;;6.35;3.17;;;14.90;99.90;;;13.51;99.75;100596.69;3510298;40;105029;-40
2021/07/05 00:23:05;;;;;;;5.75;3.55;;;14.90;99.90;;;13.50;100.00;100601.38;3510069;40;102378;-41
2021/07/05 00:25:33;;;;;;;5.40;3.40;;;14.90;99.90;;;13.49;100.00;100596.09;3510104;40;103127;-40
2021/07/05 00:28:00;;;;;;;7.60;3.63;;;14.90;99.90;;;13.53;100.00;100586.38;3509996;40;102191;-40
2021/07/05 00:30:28;;;;;;;5.80;3.40;;;14.90;99.90;;;13.50;100.00;100571.22;3510729;40;103508;-40
2021/07/05 00:32:56;;;;;;;5.85;3.38;;;14.90;99.90;;;13.59;100.00;100585.41;3510440;40;102366;-40
2021/07/05 00:35:25;;;;;;;6.38;3.70;;;15.00;99.90;;;13.55;100.00;100592.44;3509848;40;102225;-40
2021/07/05 00:37:54;;;;;;;6.70;3.67;;;14.90;99.90;;;13.54;100.00;100582.56;3510218;40;103249;-40
2021/07/05 00:40:24;;;;;;;5.05;3.20;;;14.90;99.90;;;13.57;100.00;100586.69;3510307;40;102367;-40
2021/07/05 00:42:55;;;;;;;6.03;3.15;;;15.00;99.90;;;13.58;100.00;100583.72;3510322;40;102676;-40
2021/07/05 00:45:25;;;;;;;6.15;3.40;;;15.00;99.90;;;13.58;100.00;100572.78;3509909;40;102791;-40
2021/07/05 00:47:53;;;;;;;6.10;3.75;;;15.00;99.90;;;13.58;100.00;100559.06;3510473;40;102455;-40
2021/07/05 00:50:25;;;;;;;5.63;3.42;;;15.00;99.90;;;13.62;100.00;100570.38;3510060;40;103179;-40
2021/07/05 00:52:56;;;;;;;6.00;3.67;;;15.00;99.90;;;13.61;100.00;100575.03;3509964;40;102797;-41
2021/07/05 00:55:25;;;;;;;6.65;3.83;;;15.00;99.90;;;13.59;100.00;100568.97;3510260;40;104480;-40
2021/07/05 00:57:53;;;;;;;6.88;3.47;;;15.00;99.90;;;13.57;100.00;100562.88;3510011;40;103260;-40
2021/07/05 01:00:25;;;;;;;5.80;3.78;;;15.00;99.90;;;13.60;100.00;100554.19;3510189;40;102337;-40
2021/07/05 01:02:53;;;;;;;5.53;3.78;;;15.00;99.90;;;13.60;100.00;100550.59;3510156;40;102730;-40
2021/07/05 01:05:22;;;;;;;5.80;3.67;;;15.00;99.90;;;13.57;100.00;100549.19;3509650;40;102388;-40
2021/07/05 01:07:50;;;;;;;6.10;3.75;;;15.00;99.90;;;13.60;100.00;100551.44;3655801;22;104734;-42
2021/07/05 01:10:21;;;;;;;5.43;3.58;;;15.00;99.90;;;13.59;100.00;100549.78;3529744;39;102739;-42
2021/07/05 01:12:53;;;;;;;5.40;3.55;;;15.00;99.90;;;13.58;100.00;100553.59;3530001;39;102272;-42
2021/07/05 01:15:28;;;;;;;5.43;3.53;;;15.00;99.90;;;13.57;100.00;100562.03;3529576;39;103125;-42
2021/07/05 01:18:01;;;;;;;5.22;3.20;;;15.00;99.90;;;13.56;100.00;100550.25;3521145;39;102405;-42
2021/07/05 01:20:33;;;;;;;5.47;3.60;;;15.00;99.90;;;13.54;100.00;100546.06;3519897;40;104221;-42
2021/07/05 01:23:01;;;;;;;8.23;3.30;;;14.90;99.90;;;13.52;100.00;100549.03;3519407;39;102468;-42
2021/07/05 01:25:30;;;;;;;5.38;3.35;;;14.90;99.90;;;13.51;100.00;100544.63;3519706;39;103318;-42
2021/07/05 01:28:00;;;;;;;6.82;3.45;;;14.90;99.90;;;13.50;100.00;100540.22;3519902;39;102187;-45
2021/07/05 01:30:28;;;;;;;5.80;3.80;;;14.90;99.90;;;13.49;100.00;100542.16;3520123;39;102437;-42
2021/07/05 01:33:03;;;;;;;5.65;3.28;;;14.90;99.90;;;13.48;100.00;100536.88;3519847;40;102254;-41
2021/07/05 01:35:31;;;;;;;7.35;3.70;;;14.90;99.90;;;13.51;100.00;100534.50;3519320;39;102203;-42
2021/07/05 01:38:00;;;;;;;5.20;3.53;;;14.90;99.90;;;13.51;100.00;100537.25;3520112;39;102519;-42
2021/07/05 01:40:28;;;;;;;7.03;3.60;;;14.90;99.90;;;13.53;100.00;100534.28;3519654;39;102698;-42
2021/07/05 01:42:59;;;;;;;6.47;3.72;;;14.90;99.90;;;13.54;100.00;100535.97;3519262;39;102471;-42
2021/07/05 01:45:31;;;;;;;5.97;4.03;;;14.90;99.90;;;13.57;100.00;100542.84;3519652;39;103137;-42
2021/07/05 01:48:00;;;;;;;5.03;3.40;;;14.90;99.90;;;13.63;100.00;100545.47;3519426;39;102259;-46
2021/07/05 01:50:29;;;;;;;5.03;3.75;;;15.00;99.90;;;13.68;100.00;100536.53;3520008;39;104091;-41
2021/07/05 01:52:57;;;;;;;5.22;3.70;;;15.00;99.90;;;13.71;100.00;100529.72;3519209;39;102496;-42
2021/07/05 01:55:33;;;;;;;5.75;3.63;;;15.10;99.90;;;13.70;100.00;100528.06;3519451;39;102284;-41
2021/07/05 01:58:05;;;;;;;7.75;3.92;;;15.10;99.90;;;13.72;100.00;100531.38;3519419;39;102392;-42
2021/07/05 02:00:40;;;;;;;6.63;4.07;;;15.10;99.90;;;13.72;100.00;100514.94;3519346;39;103200;-42
2021/07/05 02:03:08;;;;;;;6.32;4.32;;;15.10;99.90;;;13.76;100.00;100521.59;3519831;39;102413;-42
2021/07/05 02:05:36;;;;;;;7.68;4.00;;;15.10;99.90;;;13.78;100.00;100520.28;3519547;39;102789;-43
2021/07/05 02:08:05;;;;;;;5.53;3.90;;;15.10;99.90;;;13.75;100.00;100512.56;3519528;40;102468;-42
2021/07/05 02:10:37;;;;;;;8.95;4.03;;;15.20;99.90;;;13.76;100.00;100516.13;3519530;39;102231;-42
2021/07/05 02:13:17;;;;;;;7.15;3.85;;;15.20;99.90;;;13.75;100.00;100515.31;3519220;39;102144;-42
2021/07/05 02:15:46;;;;;;;6.35;3.95;;;15.20;99.90;;;13.75;100.00;100517.19;3519136;39;102393;-42
2021/07/05 02:18:14;;;;;;;4.90;3.60;;;15.20;99.90;;;13.81;100.00;100508.03;3519110;39;102817;-41
2021/07/05 02:20:43;;;;;;;5.47;3.78;;;15.10;99.90;;;13.85;100.00;100506.47;3519415;39;102408;-44
2021/07/05 02:23:14;;;;;;;6.32;4.00;;;15.20;99.90;;;13.89;100.00;100506.78;3519291;39;102636;-41
2021/07/05 02:25:42;;;;;;;6.93;4.10;;;15.30;99.90;;;13.91;100.00;100497.25;3518920;39;102443;-41
2021/07/05 02:28:18;;;;;;;6.97;3.50;;;15.30;99.90;;;13.89;100.00;100496.66;3519565;39;102541;-42
2021/07/05 02:30:49;;;;;;;5.63;3.67;;;15.30;99.90;;;13.89;100.00;100498.56;3519200;39;102369;-41
2021/07/05 02:33:23;;;;;;;6.30;4.07;;;15.30;99.90;;;13.89;100.00;100502.16;3519087;39;102412;-41
2021/07/05 02:35:52;;;;;;;6.57;3.58;;;15.30;99.90;;;13.86;100.00;100490.81;3519493;40;103171;-42
2021/07/05 02:38:21;;;;;;;5.10;3.45;;;15.30;99.90;;;13.85;100.00;100483.69;3519216;39;102430;-43
2021/07/05 02:40:52;;;;;;;4.82;3.40;;;15.20;99.90;;;13.88;100.00;100481.28;3519167;40;103683;-41
2021/07/05 02:43:21;;;;;;;5.97;3.55;;;15.20;99.90;;;13.89;100.00;100484.84;3519069;40;102420;-42
2021/07/05 02:45:52;;;;;;;6.22;3.13;;;15.30;99.90;;;13.88;100.00;100485.94;3518903;40;102297;-42
2021/07/05 02:48:24;;;;;;;5.32;3.65;;;15.30;99.90;;;13.85;100.00;100480.94;3519153;39;102233;-42
2021/07/05 02:50:59;;;;;;;6.18;3.45;;;15.30;99.90;;;13.84;100.00;100495.72;3519423;39;103205;-42
2021/07/05 02:53:27;;;;;;;6.68;3.22;;;15.20;99.90;;;13.80;100.00;100489.91;3519101;39;102261;-41
2021/07/05 02:55:55;;;;;;;8.88;3.20;;;15.20;99.90;;;13.83;100.00;100488.56;3518583;40;102417;-43
2021/07/05 02:58:23;;;;;;;6.10;3.50;;;15.20;99.90;;;13.88;100.00;100494.16;3518885;39;102422;-42
2021/07/05 03:00:56;;;;;;;5.18;3.30;;;15.30;99.90;;;13.94;100.00;100495.94;3526021;39;102426;-42
2021/07/05 03:03:23;;;;;;;6.63;3.55;;;15.30;99.90;;;13.95;100.00;100483.91;3519193;39;102284;-41
2021/07/05 03:05:51;;;;;;;6.35;3.67;;;15.30;99.90;;;14.06;100.00;100504.16;3518706;40;102995;-42
2021/07/05 03:08:19;;;;;;;9.25;3.58;;;15.40;99.90;;;14.07;100.00;100490.16;3519115;40;103261;-43
2021/07/05 03:10:47;;;;;;;;;;;15.40;99.90;;;14.12;100.00;100502.31;3519467;40;103241;-44
2021/07/05 03:13:18;;;;;;;4.95;3.13;;;15.50;99.90;;;14.15;100.00;100501.81;3519214;40;102539;-45
2021/07/05 03:15:48;;;;;;;4.55;2.88;;;15.50;99.90;;;14.19;100.00;100495.63;3519010;40;104289;-42
2021/07/05 03:18:16;;;;;;;6.43;3.22;;;15.50;99.90;;;14.26;100.00;100486.41;3519280;39;102238;-42
2021/07/05 03:20:47;;;;;;;5.18;3.05;;;15.60;99.90;;;14.27;100.00;100494.41;3518690;40;102285;-44
2021/07/05 03:23:18;;;;;;;6.47;3.50;;;15.60;99.90;;;14.33;100.00;100498.06;3518726;40;102550;-42
2021/07/05 03:25:46;;;;;;;6.03;3.47;;;15.60;99.90;;;14.35;100.00;100495.91;3518770;40;102410;-42
2021/07/05 03:28:16;;;;;;;;;;;15.60;99.90;;;14.36;100.00;100514.03;3519919;40;102331;-42
2021/07/05 03:30:46;;;;;;;4.43;3.05;;;15.70;99.90;;;14.37;100.00;100511.03;3518981;39;102319;-41
2021/07/05 03:33:14;;;;;;;9.57;3.25;;;15.70;99.90;;;14.41;100.00;100505.91;3518413;40;102385;-43
2021/07/05 03:35:41;;;;;;;5.50;3.22;;;15.70;99.90;;;14.47;100.00;100506.84;3518724;40;103222;-42
2021/07/05 03:38:09;;;;;;;5.35;3.20;;;15.80;99.90;;;14.47;100.00;100502.16;3518796;40;102564;-42
2021/07/05 03:40:38;;;;;;;;;;;15.80;99.90;;;14.50;100.00;100504.41;3519406;40;104068;-43
2021/07/05 03:43:08;;;;;;;4.07;2.88;;;15.80;99.90;;;14.50;100.00;100509.91;3519083;40;102487;-42
2021/07/05 03:45:39;;;;;;;5.18;2.63;;;15.80;99.90;;;14.51;100.00;100511.56;3518350;40;102412;-42
2021/07/05 03:48:09;;;;;;;4.95;2.97;;;15.80;99.90;;;14.55;100.00;100506.44;3519990;39;103510;-42
2021/07/05 03:50:38;;;;;;;5.13;3.15;;;15.90;99.90;;;14.59;100.00;100506.78;3519966;39;102403;-46
2021/07/05 03:53:07;;;;;;;7.93;2.75;;;15.90;99.90;;;14.62;100.00;100511.78;3520418;39;102378;-42
2021/07/05 03:55:36;;;;;;;5.28;2.65;;;15.90;99.90;;;14.65;100.00;100512.09;3519873;39;103508;-44
2021/07/05 03:58:06;;;;;;;4.40;2.80;;;15.90;99.90;;;14.70;100.00;100521.50;3520006;39;102406;-42
2021/07/05 04:00:38;;;;;;;5.30;2.38;;;16.00;99.90;;;14.79;100.00;100536.53;3520022;39;102214;-42
2021/07/05 04:03:07;;;;;;;4.18;2.20;;;16.00;99.90;;;14.86;100.00;100525.41;3520438;39;103275;-41
2021/07/05 04:05:35;;;;;;;5.95;2.42;;;16.20;99.90;;;14.84;98.18;100544.00;3520187;39;103454;-41
2021/07/05 04:08:04;;;;;;;;;;;16.10;99.90;;;14.81;97.76;100554.41;3520675;39;102371;-42
2021/07/05 04:10:32;;;;;;;6.60;3.17;;;16.10;99.90;;;14.78;96.40;100565.88;3520027;39;103062;-41
2021/07/05 04:13:07;;;;;;;7.15;3.85;;;16.10;99.90;;;14.65;96.64;100569.75;3519740;39;102350;-41
2021/07/05 04:15:35;;;;;;;7.90;4.15;;;16.00;99.90;;;14.55;96.99;100565.97;3520352;39;103661;-41
2021/07/05 04:18:03;;;;;;;;;;;15.90;99.90;;;14.45;96.97;100572.09;3520796;40;102466;-41
2021/07/05 04:20:33;;;;;;;9.57;4.53;;;15.80;99.90;;;14.39;97.76;100568.44;3520176;39;103270;-44
2021/07/05 04:23:01;;;;;;;8.45;5.35;;;15.70;99.90;;;14.35;97.58;100567.25;3519879;39;102409;-41
2021/07/05 04:25:29;;;;;;;;;;;15.70;99.90;;;14.29;97.41;100568.22;3520561;39;104085;-41
2021/07/05 04:27:56;;;;;;;6.43;4.10;;;15.70;99.90;;;14.23;97.08;100564.56;3519926;39;102467;-43
2021/07/05 04:30:27;;;;;;;7.35;3.58;;;15.60;99.90;;;14.20;97.04;100559.56;3520237;40;103064;-41
2021/07/05 04:32:57;;;;;;;4.57;2.80;;;15.60;99.90;;;14.14;96.73;100569.59;3520071;39;102408;-42
2021/07/05 04:35:26;;;;;;;6.55;2.75;;;15.50;99.90;;;14.10;96.21;100580.19;3519985;39;104007;-41
2021/07/05 04:37:55;;;;;;;4.15;2.35;;;15.50;99.90;;;13.98;95.71;100584.03;3520120;39;102345;-41
2021/07/05 04:40:34;;;;;;;3.38;1.88;;;15.40;99.90;;;13.87;95.99;100580.25;3519687;39;102408;-45
2021/07/05 04:43:04;;;;;;;3.08;1.85;;;15.30;99.90;;;13.81;95.54;100573.84;3520025;39;102515;-41
2021/07/05 04:45:33;;;;;;;5.20;2.20;;;15.20;99.90;;;13.74;95.46;100576.69;3519749;39;104057;-41
2021/07/05 04:48:06;;;;;;;3.38;1.42;;;15.10;99.90;;;13.62;95.53;100584.06;3519490;39;102500;-41
2021/07/05 04:50:34;;;;;;;2.35;1.33;;;15.10;99.90;;;13.57;96.05;100594.91;3519615;39;103364;-43
2021/07/05 04:53:04;;;;;;;4.15;1.45;;;15.00;99.90;;;13.51;96.50;100596.69;3520286;40;102812;-41
2021/07/05 04:55:32;;;;;;;3.25;1.40;;;14.90;99.90;;;13.47;96.14;100590.88;3519773;39;102319;-41
2021/07/05 04:58:01;;;;;;;2.78;1.40;;;14.90;99.90;;;13.47;96.39;100579.91;3520226;40;102648;-41
2021/07/05 05:00:34;;;;;;;4.22;1.55;;;14.90;99.90;;;13.44;96.92;100585.03;3519684;39;102305;-42
2021/07/05 05:03:04;;;;;;;3.53;1.35;;;14.80;99.90;;;13.42;96.78;100581.66;3520120;39;102481;-42
2021/07/05 05:05:33;;;;;;;3.30;1.25;;;14.80;99.90;;;13.41;96.43;100586.31;3519750;40;104243;-43
2021/07/05 05:08:05;;;;;;;2.92;1.20;;;14.80;99.90;;;13.38;96.52;100590.34;3519620;39;102427;-41
2021/07/05 05:10:33;;;;;;;2.90;1.20;;;14.80;99.90;;;13.35;96.78;100581.75;3520123;40;104390;-41
2021/07/05 05:13:01;;;;;;;2.40;1.27;;;14.80;99.90;;;13.35;96.79;100600.94;3519069;39;102260;-42
2021/07/05 05:15:28;;;;;;;;;;;14.70;99.90;;;13.37;97.46;100602.41;3520573;39;102248;-43
2021/07/05 05:17:56;;;;;;;3.97;1.40;;;14.70;99.90;;;13.36;96.46;100613.56;3519887;39;102427;-41
2021/07/05 05:20:24;;;;;;;2.97;1.40;;;14.80;99.90;;;13.42;95.56;100600.84;3520184;40;102744;-42
2021/07/05 05:22:52;;;;;;;3.25;1.20;;;14.80;99.90;;;13.36;95.70;100595.25;3519793;39;102395;-41
2021/07/05 05:25:20;;;;;;;3.30;1.60;;;14.70;99.90;;;13.36;96.03;100610.84;3519458;39;104055;-42
2021/07/05 05:27:49;;;;;;;3.00;1.30;;;14.70;99.90;;;13.34;95.93;100624.78;3520303;39;102466;-41
2021/07/05 05:30:19;;;;;;;5.53;1.20;;;14.70;99.90;;;13.32;96.19;100610.50;3519541;39;102388;-42
2021/07/05 05:32:49;;;;;;;2.45;1.30;;;14.70;99.90;;;13.31;96.63;100602.50;3519724;39;102374;-41
2021/07/05 05:35:22;;;;;;;5.13;1.30;;;14.70;99.90;;;13.34;96.79;100610.25;3519560;39;102592;-42
2021/07/05 05:37:52;;;;;;;3.50;1.33;;;14.70;99.90;;;13.34;97.13;100591.91;3519722;39;102497;-41
2021/07/05 05:40:21;;;;;;;2.22;1.40;;;14.70;99.90;;;13.42;97.13;100592.63;3519526;39;102306;-42
2021/07/05 05:42:49;;;;;;;5.07;1.83;;;14.80;99.90;;;13.46;96.91;100588.38;3520029;39;102350;-42
2021/07/05 05:45:17;;;;;;;3.35;1.70;;;14.80;99.90;;;13.50;97.14;100586.81;3519614;39;103333;-42
2021/07/05 05:47:45;;;;;;;3.78;1.50;;;14.80;99.90;;;13.53;97.32;100589.09;3519806;39;102460;-41
2021/07/05 05:50:15;;;;;;;4.95;1.63;;;14.90;99.90;;;13.56;97.42;100580.41;3519748;39;103131;-41
2021/07/05 05:52:42;;;;;;;3.42;1.40;;;14.90;99.90;;;13.61;97.43;100580.50;3519608;39;102431;-42
2021/07/05 05:55:11;;;;;;;;;;;14.90;99.90;;;13.62;97.58;100584.91;3520456;40;102346;-43
2021/07/05 05:57:39;;;;;;;3.13;1.58;;;14.90;99.90;;;13.66;97.77;100588.84;3519798;39;102621;-44
2021/07/05 06:00:17;;;;;;;4.20;1.70;;;15.00;99.90;;;13.71;98.00;100587.28;3519223;39;103533;-44
2021/07/05 06:02:48;;;;;;;3.33;1.70;;;15.00;99.90;;;13.76;97.98;100582.75;3519544;39;102486;-44
2021/07/05 06:05:17;;;;;;;4.25;1.85;;;15.10;99.90;;;13.80;97.14;100577.66;3519027;39;102753;-42
2021/07/05 06:07:51;;;;;;;4.22;1.77;;;15.10;99.90;;;13.89;97.39;100587.16;3519280;39;103355;-41
2021/07/05 06:10:22;;;;;;;2.85;1.80;;;15.20;99.90;;;13.97;97.49;100588.72;3519120;40;103198;-41
2021/07/05 06:12:55;;;;;;;3.00;1.80;;;15.20;99.90;;;14.03;96.94;100592.38;3519768;39;102262;-43
2021/07/05 06:15:23;;;;;;;2.67;1.42;;;15.30;99.90;;;14.09;96.03;100584.03;3519271;39;102200;-41
2021/07/05 06:17:54;;;;;;;3.50;1.70;;;15.40;99.90;;;14.15;95.92;100584.13;3519978;39;102386;-42
2021/07/05 06:20:22;;;;;;;4.10;1.70;;;15.40;99.90;;;14.12;95.98;100596.44;3519874;39;102340;-42
2021/07/05 06:23:17;;;;;;;2.90;1.50;;;15.40;99.90;;;14.18;96.35;100584.47;3519242;39;102317;-44
2021/07/05 06:25:45;;;;;;;3.03;1.38;;;15.40;99.90;;;14.22;95.73;100574.69;3518776;39;102642;-42
2021/07/05 06:28:13;;;;;;;3.95;1.90;;;15.50;99.90;;;14.34;95.29;100579.31;3519578;40;102355;-42
2021/07/05 06:30:40;;;;;;;3.05;1.75;;;15.60;99.90;;;14.39;94.99;100579.41;3519169;39;102413;-42
2021/07/05 06:33:08;;;;;;;4.45;2.20;;;15.60;99.90;;;14.52;95.15;100575.53;3519710;40;103239;-42
2021/07/05 06:35:36;;;;;;;4.10;1.88;;;15.70;99.90;;;14.62;95.89;100578.47;3519280;39;103215;-41
2021/07/05 06:38:03;;;;;;;4.95;2.47;;;15.80;99.90;;;14.60;94.61;100586.13;3520181;39;102481;-42
2021/07/05 06:40:31;;;;;;;3.50;1.95;;;15.80;99.90;;;14.63;94.19;100584.81;3519796;40;103424;-42
2021/07/05 06:42:59;;;;;;;3.60;1.88;;;15.80;99.90;;;14.65;93.58;100579.91;3519481;40;102441;-45
2021/07/05 06:45:26;;;;;;;3.60;2.13;;;15.80;99.90;;;14.78;94.24;100574.13;3518196;40;102937;-41
2021/07/05 06:47:54;;;;;;;4.30;2.25;;;15.90;99.90;;;14.90;94.55;100578.75;3519132;40;102479;-41
2021/07/05 06:50:22;;;;;;;;;;;16.00;99.90;;;15.05;94.75;100568.00;3519732;40;102256;-43
2021/07/05 06:52:51;;;;;;;4.80;2.05;;;16.10;99.90;;;15.16;93.53;100570.94;3519594;40;102071;-41
2021/07/05 06:55:19;;;;;;;5.55;2.53;;;16.20;99.90;;;15.26;92.62;100570.28;3519266;39;103299;-42
2021/07/05 06:57:47;;;;;;;;;;;16.30;99.90;;;15.32;92.28;100572.84;3519912;40;102399;-42
2021/07/05 07:00:22;;;;;;;4.60;2.65;;;16.40;99.90;;;15.53;92.98;100574.00;3519357;39;102160;-42
2021/07/05 07:02:50;;;;;;;6.15;3.13;;;16.50;99.90;;;15.56;90.84;100575.41;3518705;40;102442;-44
2021/07/05 07:05:23;;;;;;;7.40;3.25;;;16.60;99.90;;;15.79;91.58;100574.38;3518949;40;102475;-42
2021/07/05 07:07:54;;;;;;;8.50;3.63;;;16.80;99.90;;;15.96;91.37;100577.09;3648844;22;103975;-40
2021/07/05 07:10:24;;;;;;;8.02;3.90;;;16.90;99.90;;;16.04;89.65;100583.25;3519223;39;102317;-40
2021/07/05 07:12:54;;;;;;;6.95;3.72;;;17.10;99.90;;;16.13;89.26;100586.38;3518755;40;102590;-40
2021/07/05 07:15:46;;;;;;;7.93;3.72;;;17.10;99.90;;;16.17;88.82;100599.34;3519292;40;102231;-40
2021/07/05 07:21:03;;;;;;;6.88;4.38;;;17.30;99.90;;;16.36;88.65;100621.06;3510006;40;102177;-40
2021/07/05 07:23:31;;;;;;;6.63;3.70;;;17.40;99.90;;;16.38;89.06;100617.00;3510685;40;102355;-41
2021/07/05 07:25:58;;;;;;;6.32;3.95;;;17.40;99.90;;;16.42;88.75;100613.72;3509897;40;105067;-40
2021/07/05 07:28:26;;;;;;;8.27;3.35;;;17.40;99.90;;;16.47;87.17;100617.38;3510470;40;102367;-40
2021/07/05 07:30:54;;;;;;;5.53;3.13;;;17.50;99.90;;;16.44;86.09;100620.59;3510614;40;104291;-40
2021/07/05 07:33:21;;;;;;;;;;;17.50;99.90;;;16.44;85.84;100617.84;3511262;39;102311;-41
2021/07/05 07:35:50;;;;;;;5.93;2.35;;;17.50;99.90;;;16.50;84.49;100619.59;3510868;40;103100;-40
2021/07/05 07:38:18;;;;;;;4.72;2.50;;;17.60;99.90;;;16.61;85.53;100608.69;3510834;39;102335;-40
2021/07/05 07:40:46;;;;;;;3.97;1.80;;;17.70;99.90;;;16.68;83.73;100607.41;3510523;40;102404;-42
2021/07/05 07:43:14;;;;;;;4.63;1.92;;;17.70;99.90;;;16.76;83.58;100608.03;3510473;40;103329;-40
2021/07/05 07:45:41;;;;;;;6.03;2.72;;;17.70;99.90;;;16.95;83.49;100605.72;3509893;40;103226;-41
2021/07/05 07:48:09;;;;;;;4.32;2.13;;;17.90;99.90;;;17.24;83.86;100614.59;3510188;40;102292;-41
2021/07/05 07:50:37;;;;;;;5.53;2.20;;;18.10;99.90;;;17.54;81.24;100609.59;3510301;40;102386;-41
2021/07/05 07:53:04;;;;;;;5.20;2.40;;;18.40;99.90;;;17.78;82.38;100607.25;3510239;40;102426;-40
2021/07/05 07:55:32;;;;;;;5.03;2.22;;;18.60;99.90;;;17.80;80.04;100598.72;3510713;39;102189;-40
2021/07/05 07:57:59;;;;;;;6.75;2.38;;;18.70;99.90;;;17.85;81.33;100593.22;3510294;40;103387;-40
2021/07/05 08:00:30;;;;;;;5.07;2.13;;;18.70;99.90;;;17.86;77.29;100597.66;3510327;39;102365;-40
2021/07/05 08:02:57;;;;;;;4.32;2.22;;;18.80;99.90;;;18.04;78.45;100604.69;3510492;40;102316;-40
2021/07/05 08:05:25;;;;;;;;;;;18.90;99.90;;;17.98;76.47;100612.06;3511183;40;102366;-40
2021/07/05 08:07:52;;;;;;;4.50;2.15;;;19.00;99.90;;;17.95;79.46;100615.34;3510327;40;103471;-40
2021/07/05 08:10:20;;;;;;;6.60;2.50;;;19.00;99.90;;;18.02;79.61;100606.03;3510724;40;103129;-41
2021/07/05 08:12:47;;;;;;;4.95;2.00;;;19.00;99.90;;;18.26;76.32;100606.44;3510624;40;102368;-41
2021/07/05 08:15:17;;;;;;;4.90;2.15;;;19.10;99.90;;;18.11;76.45;100612.72;3510369;39;102281;-40
2021/07/05 08:17:48;;;;;;;4.55;2.30;;;19.10;99.90;;;18.17;77.63;100616.31;3510047;40;103306;-41
2021/07/05 08:20:22;;;;;;;6.93;2.30;;;19.10;99.90;;;18.42;78.32;100618.38;3510308;40;102212;-40
2021/07/05 08:22:53;;;;;;;4.15;2.00;;;19.30;99.90;;;18.66;76.92;100615.13;3509978;40;102379;-40
2021/07/05 08:25:24;;;;;;;4.70;1.88;;;19.40;99.90;;;18.64;72.46;100612.63;3510605;40;103226;-41
2021/07/05 08:27:52;;;;;;;4.03;1.98;;;19.60;99.90;;;18.96;74.73;100619.06;3510629;40;102246;-40
2021/07/05 08:30:21;;;;;;;5.38;2.00;;;19.70;99.90;;;19.01;73.17;100615.53;3510125;40;102282;-40
2021/07/05 08:32:50;;;;;;;5.90;1.95;;;19.90;99.90;;;19.14;72.13;100620.50;3509814;40;102445;-40
2021/07/05 08:35:20;;;;;;;3.08;1.52;;;20.00;99.90;;;19.30;71.31;100613.03;3509872;40;103214;-43
2021/07/05 08:37:49;;;;;;;3.08;1.50;;;20.10;99.90;;;19.35;70.49;100615.78;3509818;40;102549;-40
2021/07/05 08:40:17;;;;;;;7.78;2.00;;;20.20;99.90;;;19.33;71.16;100615.25;3510561;40;102255;-41
2021/07/05 08:42:45;;;;;;;;;;;20.20;99.90;;;19.20;70.58;100622.16;3510658;40;102451;-44
2021/07/05 08:45:14;;;;;;;3.97;1.60;;;20.20;99.90;;;19.19;70.87;100623.25;3510170;40;102370;-41
2021/07/05 08:47:44;;;;;;;3.38;1.50;;;20.10;99.90;;;19.05;69.73;100622.16;3510058;40;102479;-40
2021/07/05 08:50:14;;;;;;;4.80;1.58;;;20.00;99.90;;;18.96;68.95;100621.81;3509914;40;102354;-40
2021/07/05 08:52:43;;;;;;;5.55;1.77;;;20.00;99.90;;;18.94;72.51;100633.16;3510448;40;102253;-41
2021/07/05 08:55:18;;;;;;;3.70;1.42;;;20.00;99.90;;;18.76;70.00;100630.91;3510019;40;102212;-40
2021/07/05 08:57:47;;;;;;;5.10;1.40;;;19.90;99.90;;;18.61;69.39;100628.94;3510078;40;102143;-41
2021/07/05 09:00:19;;;;;;;2.60;1.20;;;19.80;99.90;;;18.50;71.16;100631.66;3509826;40;103343;-40
2021/07/05 09:02:48;;;;;;;3.53;1.75;;;19.70;99.90;;;18.40;72.76;100628.84;3510577;40;102369;-40
2021/07/05 09:05:17;;;;;;;5.20;1.60;;;19.60;99.90;;;18.17;72.18;100633.72;3510429;40;102386;-40
2021/07/05 09:08:03;;;;;;;3.33;1.48;;;19.40;99.90;;;18.02;72.08;100628.09;3509936;40;102406;-41
2021/07/05 09:10:43;;;;;;;5.68;1.70;;;19.20;99.90;;;17.90;75.29;100629.13;3510327;40;102137;-42
2021/07/05 09:13:24;;;;;;;3.75;1.65;;;19.10;99.90;;;17.80;74.22;100631.84;3510107;40;102454;-41
2021/07/05 09:15:59;;;;;;;3.50;1.70;;;18.90;99.90;;;17.73;75.88;100621.03;3509764;40;103270;-40
2021/07/05 09:18:38;;;;;;;4.55;1.63;;;18.80;99.90;;;17.62;75.24;100620.13;3510159;40;102341;-40
2021/07/05 09:21:21;;;;;;;3.53;1.83;;;18.80;99.90;;;17.67;77.02;100627.59;3510125;39;103255;-40
2021/07/05 09:23:55;;;;;;;4.78;1.88;;;18.80;99.90;;;17.73;76.62;100631.22;3509849;40;103397;-41
2021/07/05 09:26:42;;;;;;;5.90;1.95;;;18.80;99.90;;;17.82;76.66;100615.84;3509876;40;103105;-40
2021/07/05 09:29:15;;;;;;;5.28;1.75;;;18.90;99.90;;;18.05;77.77;100613.81;3509841;40;103375;-40
2021/07/05 09:31:48;;;;;;;4.25;1.70;;;19.00;99.90;;;18.27;73.93;100621.91;3510330;40;102437;-41
2021/07/05 09:34:22;;;;;;;5.38;1.80;;;19.20;99.90;;;18.51;75.73;100618.69;3510039;40;102162;-42
2021/07/05 09:37:20;;;;;;;3.70;1.73;;;19.40;99.90;;;18.81;74.34;100612.38;3509928;40;103465;-41
2021/07/05 09:40:02;;;;;;;4.88;1.50;;;19.60;99.90;;;19.02;71.82;100617.19;3509724;40;102883;-41
2021/07/05 09:42:40;;;;;;;4.43;1.50;;;19.80;99.90;;;19.11;71.46;100635.72;3509886;40;103366;-41
2021/07/05 09:45:27;;;;;;;3.80;1.90;;;19.90;99.90;;;19.21;72.47;100631.28;3508860;40;102365;-42
2021/07/05 09:48:19;;;;;;;6.03;1.70;;;20.00;99.90;;;19.15;69.54;100633.22;3510224;40;102443;-41
2021/07/05 09:51:00;;;;;;;3.20;1.50;;;20.00;99.90;;;19.04;69.56;100631.56;3510422;40;102220;-41
2021/07/05 09:53:40;;;;;;;5.28;1.70;;;20.10;99.90;;;18.95;71.02;100623.75;3510458;39;103200;-41
2021/07/05 09:56:27;;;;;;;4.00;1.50;;;20.00;99.90;;;18.92;70.14;100623.47;3509796;40;102254;-41
2021/07/05 09:59:12;;;;;;;4.18;1.88;;;19.90;99.90;;;19.01;72.28;100627.38;3509837;40;103325;-40
2021/07/05 10:01:52;;;;;;;3.72;1.50;;;19.90;99.90;;;19.09;71.64;100617.72;3510113;40;102292;-41
2021/07/05 10:04:37;;;;;;;5.30;1.70;;;20.00;99.90;;;19.40;71.43;100615.81;3509438;40;104179;-42
2021/07/05 10:07:06;;;;;;;3.97;1.77;;;20.20;99.90;;;19.74;68.00;100616.31;3509698;40;102406;-40
2021/07/05 10:09:39;;;;;;;3.50;1.30;;;20.50;99.90;;;19.88;64.76;100614.63;3509852;40;104106;-42
2021/07/05 10:12:48;;;;;;;3.58;1.50;;;20.70;99.90;;;19.86;65.56;100613.25;3510252;40;102161;-40
2021/07/05 10:15:17;;;;;;;2.63;1.35;;;20.80;99.90;;;19.86;66.13;100619.59;3495025;40;103305;-40
2021/07/05 10:17:48;;;;;;;4.10;1.67;;;20.80;99.90;;;19.74;68.12;100610.78;3509797;40;102384;-40
2021/07/05 10:20:44;;;;;;;4.85;1.70;;;20.70;99.90;;;19.74;66.13;100602.47;3509587;40;103184;-41
2021/07/05 10:23:17;;;;;;;3.90;1.60;;;20.70;99.90;;;19.78;68.07;100612.72;3509677;40;103560;-41
2021/07/05 10:25:48;;;;;;;3.65;1.40;;;20.70;99.90;;;19.80;67.30;100612.44;3509810;40;102246;-40